Time;durP1;ratioP1;P1;durP2;ratioP2;P2;SDS_P1;SDS_P2;PMS_P1;PMS_P2;Temp;Humidity;BMP_temperature;BMP_pressure;BME280_temperature;BME280_humidity;BME280_pressure;Samples;Min_cycle;Max_cycle;Signal;HPM_P1;HPM_P2
2022/03/09 07:08:03;;;;;;;;;;;;;;;;;;;;;
2022/03/09 07:11:16;;;;;;;;;44.00;38.25;;;;;8.79;55.79;101746.59;6015551;23;69209;-88
2022/03/09 07:13:56;;;;;;;;;;;;;;;;;;;;;
2022/03/09 07:16:53;;;;;;;;;;;;;;;;;;;;;
2022/03/09 07:22:15;;;;;;;;;55.00;43.00;;;;;8.96;55.70;101774.09;6097194;23;45443;-88
2022/03/09 07:24:51;;;;;;;;;;;;;;;;;;;;;
2022/03/09 07:31:00;;;;;;;;;52.25;43.25;;;;;8.90;56.17;101739.84;6113844;23;45300;-89
2022/03/09 07:33:35;;;;;;;;;45.75;39.50;;;;;9.01;56.05;101751.44;6156056;23;45305;-89
2022/03/09 07:39:57;;;;;;;;;;;;;;;;;;;;;
2022/03/09 07:42:39;;;;;;;;;42.00;39.00;;;;;9.17;56.68;101751.72;6259500;22;72100;-87
2022/03/09 08:12:48;;;;;;;;;38.25;33.75;;;;;9.94;57.46;101809.09;6226399;22;45162;-84
2022/03/09 08:29:50;;;;;;;;;37.00;33.25;;;;;10.18;57.66;101819.13;6065462;23;45689;-86
2022/03/09 08:32:19;;;;;;;;;31.75;28.75;;;;;9.99;58.32;101786.38;6066244;23;45318;-82
2022/03/09 08:34:45;;;;;;;;;25.00;23.00;;;;;10.08;58.31;101790.91;6062234;23;45323;-83
2022/03/09 08:37:14;;;;;;;;;26.50;22.75;;;;;10.09;58.71;101790.03;6250960;22;45483;-83
2022/03/09 08:39:41;;;;;;;;;31.50;27.00;;;;;10.19;58.86;101810.38;6276735;22;46793;-83
2022/03/09 08:42:07;;;;;;;;;30.50;24.75;;;;;10.13;59.01;101795.38;6276766;22;45341;-82
2022/03/09 08:44:33;;;;;;;;;30.75;25.50;;;;;10.12;58.94;101788.34;6276914;22;45214;-82
2022/03/09 08:47:04;;;;;;;;;30.50;26.25;;;;;10.15;59.00;101798.03;6279261;22;45382;-83
2022/03/09 09:13:31;;;;;;;;;;;;;;;;;;;;;
2022/03/09 09:33:02;;;;;;;;;;;;;;;;;;;;;
2022/03/09 09:40:44;;;;;;;;;;;;;;;;;;;;;
2022/03/09 09:43:07;;;;;;;;;25.75;22.75;;;;;10.57;60.14;101808.31;6061104;23;45337;-83
2022/03/09 09:45:39;;;;;;;;;20.75;17.75;;;;;10.52;60.06;101786.31;6094041;23;45246;-83
2022/03/09 09:48:10;;;;;;;;;22.50;19.75;;;;;10.66;59.85;101794.38;6098026;23;45324;-82
2022/03/09 09:50:39;;;;;;;;;17.00;16.25;;;;;10.67;60.11;101784.75;6121535;23;45578;-82
2022/03/09 09:53:07;;;;;;;;;15.00;14.00;;;;;10.64;60.02;101789.94;6189971;22;45214;-82
2022/03/09 09:55:33;;;;;;;;;18.00;17.00;;;;;10.70;60.01;101790.06;6187157;22;45309;-80
2022/03/09 10:31:21;;;;;;;;;14.75;13.25;;;;;11.69;58.32;101763.84;6145273;23;45242;-85
2022/03/09 10:45:11;;;;;;;;;18.75;16.50;;;;;12.49;56.89;101767.03;6286855;22;45479;-82
2022/03/09 11:01:20;;;;;;;;;16.50;13.50;;;;;13.52;54.55;101764.69;6064276;23;45641;-87
2022/03/09 11:14:51;;;;;;;;;11.50;11.50;;;;;14.00;53.11;101771.72;6309230;22;45353;-86
2022/03/09 11:28:16;;;;;;;;;;;;;;;;;;;;;
2022/03/09 11:34:03;;;;;;;;;13.50;11.50;;;;;14.66;51.67;101746.88;5788694;24;45270;-81
2022/03/09 11:36:40;;;;;;;;;13.50;9.25;;;;;14.88;51.30;101739.69;5788025;24;45400;-85
2022/03/09 13:08:34;;;;;;;;;9.00;7.25;;;;;19.89;38.53;101629.38;6117723;23;45490;-90
2022/03/09 13:14:21;;;;;;;;;9.00;8.00;;;;;20.10;38.15;101621.66;6246790;22;45143;-86
2022/03/09 13:17:16;;;;;;;;;8.00;8.00;;;;;20.40;37.81;101633.25;6228300;22;47548;-89
2022/03/09 13:20:47;;;;;;;;;;;;;;;;;;;;;
2022/03/09 13:43:59;;;;;;;;;9.00;8.50;;;;;21.50;34.06;101602.03;6218116;22;45506;-83
2022/03/09 13:46:25;;;;;;;;;9.25;9.00;;;;;21.77;33.52;101592.97;6246570;22;45242;-80
2022/03/09 13:49:11;;;;;;;;;7.75;7.75;;;;;21.86;33.08;101604.28;6245929;22;45300;-79
2022/03/09 13:51:37;;;;;;;;;7.75;7.75;;;;;21.63;33.17;101597.97;6220085;22;45343;-80
2022/03/09 13:54:06;;;;;;;;;8.00;7.25;;;;;21.34;33.04;101596.28;6247442;22;45266;-80
2022/03/09 13:56:36;;;;;;;;;9.50;9.50;;;;;21.03;33.70;101600.00;6245387;22;45378;-79
2022/03/09 13:59:02;;;;;;;;;8.25;7.25;;;;;20.76;33.38;101595.56;6220083;22;45313;-80
2022/03/09 14:01:32;;;;;;;;;8.50;7.00;;;;;20.73;33.62;101599.22;6219972;22;45282;-80
2022/03/09 14:04:06;;;;;;;;;10.25;8.75;;;;;20.61;33.47;101597.84;6220259;22;47029;-80
2022/03/09 14:06:36;;;;;;;;;9.25;9.25;;;;;20.27;34.04;101588.13;6219933;22;45688;-80
2022/03/09 14:09:13;;;;;;;;;9.00;8.00;;;;;20.76;34.52;101592.91;6247604;22;45165;-80
2022/03/09 14:11:43;;;;;;;;;9.75;8.50;;;;;23.04;34.13;101589.84;6247028;22;45342;-79
2022/03/09 14:14:13;;;;;;;;;8.50;8.50;;;;;25.81;31.89;101574.75;6219424;22;47347;-80
2022/03/09 14:17:02;;;;;;;;;11.25;8.25;;;;;27.84;28.99;101565.69;6220148;22;45217;-80
2022/03/09 14:19:31;;;;;;;;;9.00;8.00;;;;;27.51;28.21;101560.53;6220265;22;45324;-81
2022/03/09 14:21:57;;;;;;;;;7.25;7.25;;;;;27.61;26.96;101558.97;6219737;22;45327;-80
2022/03/09 14:24:23;;;;;;;;;8.50;7.00;;;;;28.84;26.49;101556.47;6247857;22;45672;-81
2022/03/09 14:26:51;;;;;;;;;9.25;9.00;;;;;29.08;25.17;101553.94;6247537;22;45176;-81
2022/03/09 14:29:22;;;;;;;;;10.50;9.50;;;;;27.80;24.98;101548.78;6245422;22;45396;-81
2022/03/09 14:31:52;;;;;;;;;9.00;8.50;;;;;26.81;26.08;101548.44;6219360;22;45328;-81
2022/03/09 14:34:26;;;;;;;;;15.00;12.00;;;;;27.71;26.08;101555.59;6247516;22;45432;-81
2022/03/09 14:36:53;;;;;;;;;11.00;8.67;;;;;26.82;25.64;101547.47;6219107;22;45396;-81
2022/03/09 14:39:20;;;;;;;;;10.00;8.67;;;;;25.84;25.68;101549.47;6219763;22;45430;-81
2022/03/09 14:41:46;;;;;;;;;10.00;9.75;;;;;25.00;27.01;101543.97;6244777;22;45255;-80
2022/03/09 14:44:21;;;;;;;;;;;;;;;;;;;;;
2022/03/09 14:46:50;;;;;;;;;12.50;10.00;;;;;26.70;26.49;101548.19;6246539;22;73334;-80
2022/03/09 14:49:52;;;;;;;;;12.75;12.00;;;;;26.33;25.21;101549.41;6247962;22;45391;-82
2022/03/09 14:52:25;;;;;;;;;11.00;10.00;;;;;25.02;25.88;101550.13;6237339;22;45191;-81
2022/03/09 14:54:51;;;;;;;;;10.00;10.00;;;;;25.18;27.36;101539.47;6219917;22;47269;-82
2022/03/09 14:57:20;;;;;;;;;13.25;11.25;;;;;26.66;26.49;101546.63;6220119;22;45408;-80
2022/03/09 14:59:45;;;;;;;;;9.00;8.00;;;;;26.12;25.25;101546.97;6221544;22;45398;-82
2022/03/09 15:02:14;;;;;;;;;12.00;11.00;;;;;25.04;25.27;101542.84;6245051;22;45502;-82
2022/03/09 15:05:02;;;;;;;;;11.00;11.00;;;;;23.91;26.30;101542.06;6242424;22;47168;-84
2022/03/09 15:07:49;;;;;;;;;11.75;10.50;;;;;23.10;27.46;101548.41;6218053;22;46069;-86
2022/03/09 15:13:38;;;;;;;;;10.75;9.75;;;;;23.99;28.26;101539.91;6231510;22;45351;-83
2022/03/09 15:16:37;;;;;;;;;;;;;;;;;;;;;
2022/03/09 15:19:06;;;;;;;;;10.33;10.00;;;;;26.81;25.65;101532.22;6243981;22;73074;-81
2022/03/09 15:21:32;;;;;;;;;15.00;11.00;;;;;26.52;24.91;101535.78;6246400;22;45212;-82
2022/03/09 15:23:57;;;;;;;;;13.25;11.25;;;;;26.35;24.99;101529.47;6245436;22;45267;-83
2022/03/09 15:26:30;;;;;;;;;11.00;11.00;;;;;26.20;25.02;101524.97;6218386;22;47570;-83
2022/03/09 15:28:59;;;;;;;;;10.67;10.33;;;;;27.36;24.77;101530.72;6242727;22;45462;-82
2022/03/09 15:31:30;;;;;;;;;9.67;9.67;;;;;28.31;23.72;101523.84;6219305;22;45259;-85
2022/03/09 15:33:55;;;;;;;;;9.25;9.25;;;;;29.65;23.01;101523.75;6217754;22;45187;-83
2022/03/09 15:36:54;;;;;;;;;9.75;9.75;;;;;30.00;22.28;101523.91;6219329;22;48078;-86
2022/03/09 15:40:04;;;;;;;;;10.00;10.00;;;;;30.13;22.14;101526.56;6175174;23;45601;-85
2022/03/09 15:56:59;;;;;;;;;13.00;12.75;;;;;28.71;21.66;101522.06;6191448;22;45291;-91
2022/03/09 16:03:15;;;;;;;;;12.00;9.00;;;;;29.08;20.94;101518.69;6067481;23;45274;-84
2022/03/09 16:06:24;;;;;;;;;11.75;11.75;;;;;28.13;21.05;101513.22;6066822;23;45545;-85
2022/03/09 16:08:58;;;;;;;;;12.00;12.00;;;;;26.58;22.38;101527.31;6192153;22;45617;-84
2022/03/09 16:11:24;;;;;;;;;15.00;12.00;;;;;25.38;22.82;101536.59;6217606;22;47398;-83
2022/03/09 16:14:02;;;;;;;;;12.00;12.00;;;;;24.89;24.05;101524.81;6244885;22;45422;-84
2022/03/09 16:17:03;;;;;;;;;;;;;;;;;;;;;
2022/03/09 16:19:32;;;;;;;;;15.00;13.50;;;;;25.21;24.39;101534.81;6244791;22;72026;-84
2022/03/09 16:21:57;;;;;;;;;13.75;13.25;;;;;25.28;24.20;101528.13;6245466;22;45256;-84
2022/03/09 16:24:53;;;;;;;;;;;;;;;;;;;;;
2022/03/09 16:27:19;;;;;;;;;13.50;13.50;;;;;23.49;25.74;101523.38;6244142;22;70441;-84
2022/03/09 16:29:55;;;;;;;;;13.75;12.00;;;;;23.00;26.14;101528.25;6245668;22;45196;-83
2022/03/09 16:32:24;;;;;;;;;12.75;11.00;;;;;22.92;26.24;101531.22;6218362;22;48173;-84
2022/03/09 16:35:38;;;;;;;;;14.25;14.25;;;;;23.05;26.23;101529.78;6218677;22;45454;-84
2022/03/09 16:38:07;;;;;;;;;12.50;12.00;;;;;23.15;26.64;101521.31;6211678;22;45413;-84
2022/03/09 16:43:58;;;;;;;;;12.25;10.75;;;;;23.01;26.49;101521.91;6121105;22;45814;-83
2022/03/09 16:46:40;;;;;;;;;16.50;14.75;;;;;22.65;26.98;101531.44;6246592;22;45137;-84
2022/03/09 16:50:00;;;;;;;;;14.75;14.25;;;;;22.19;27.50;101529.75;6219171;22;45370;-85
2022/03/09 16:52:26;;;;;;;;;15.75;14.75;;;;;21.70;27.87;101534.28;6217920;22;45327;-84
2022/03/09 16:55:06;;;;;;;;;16.75;16.00;;;;;21.22;28.36;101537.78;6217442;22;46502;-85
2022/03/09 16:57:32;;;;;;;;;17.75;11.50;;;;;20.76;28.68;101536.69;6216911;22;45183;-82
2022/03/09 17:14:38;;;;;;;;;12.50;12.25;;;;;18.91;31.20;101543.84;6124118;23;45433;-86
2022/03/09 18:32:24;;;;;;;;;29.50;26.25;;;;;15.50;40.27;101602.13;6157015;23;45456;-93
2022/03/09 18:34:50;;;;;;;;;27.00;24.50;;;;;15.47;40.68;101610.13;6253339;22;45270;-94
2022/03/09 18:40:40;;;;;;;;;27.50;24.75;;;;;15.40;40.56;101606.69;6217348;22;45512;-86
2022/03/09 18:43:06;;;;;;;;;28.50;26.00;;;;;15.30;41.00;101600.56;6254513;22;47410;-91
2022/03/09 18:48:38;;;;;;;;;35.00;33.25;;;;;15.24;41.44;101600.63;6228700;22;45286;-90
2022/03/09 18:51:38;;;;;;;;;24.00;23.75;;;;;15.29;41.42;101617.38;6253961;22;45053;-92
2022/03/09 19:08:38;;;;;;;;;38.75;35.25;;;;;14.99;41.99;101608.81;5903084;24;45879;-91
2022/03/09 19:12:29;;;;;;;;;36.25;30.50;;;;;14.95;41.97;101601.75;5874674;24;45606;-88
2022/03/09 19:56:49;;;;;;;;;33.00;29.00;;;;;14.67;42.66;101638.16;5129992;27;45736;-88
2022/03/09 19:59:41;;;;;;;;;;;;;;;;;;;;;
2022/03/09 20:02:59;;;;;;;;;30.25;28.25;;;;;14.62;42.63;101650.59;5133764;27;74238;-88
2022/03/09 20:05:35;;;;;;;;;31.75;29.75;;;;;14.60;43.05;101649.72;5125414;27;45578;-88
2022/03/09 20:08:14;;;;;;;;;;;;;;;;;;;;;
2022/03/09 20:10:51;;;;;;;;;37.50;33.25;;;;;14.50;43.01;101640.91;5141291;27;71473;-88
2022/03/09 20:14:00;;;;;;;;;;;;;;;;;;;;;
